sensor_id;sensor_type;location;lat;lon;timestamp;P1;durP1;ratioP1;P2;durP2;ratioP2
24995;SDS011;13016;52.162;21.034;2023-12-20T00:19:45;13.50;;;8.40;;
24995;SDS011;13016;52.162;21.034;2023-12-20T00:25:59;13.40;;;8.00;;
24995;SDS011;13016;52.162;21.034;2023-12-20T00:32:05;11.00;;;7.60;;
24995;SDS011;13016;52.162;21.034;2023-12-20T03:12:06;5.10;;;4.20;;
24995;SDS011;13016;52.162;21.034;2023-12-20T03:36:13;5.40;;;3.20;;
24995;SDS011;13016;52.162;21.034;2023-12-20T03:42:17;4.70;;;3.50;;
24995;SDS011;13016;52.162;21.034;2023-12-20T03:54:53;4.60;;;3.70;;
24995;SDS011;13016;52.162;21.034;2023-12-20T05:36:11;6.90;;;4.90;;
24995;SDS011;13016;52.162;21.034;2023-12-20T05:42:14;6.50;;;5.40;;
24995;SDS011;13016;52.162;21.034;2023-12-20T07:23:53;6.70;;;5.20;;
24995;SDS011;13016;52.162;21.034;2023-12-20T08:32:00;5.50;;;4.30;;
24995;SDS011;13016;52.162;21.034;2023-12-20T08:38:42;4.80;;;4.30;;
24995;SDS011;13016;52.162;21.034;2023-12-20T08:45:13;6.70;;;4.20;;
24995;SDS011;13016;52.162;21.034;2023-12-20T08:51:45;4.30;;;3.90;;
24995;SDS011;13016;52.162;21.034;2023-12-20T08:58:15;5.00;;;3.70;;
24995;SDS011;13016;52.162;21.034;2023-12-20T09:11:23;6.10;;;4.20;;
24995;SDS011;13016;52.162;21.034;2023-12-20T09:37:08;5.60;;;3.90;;
24995;SDS011;13016;52.162;21.034;2023-12-20T10:15:37;4.50;;;3.80;;
24995;SDS011;13016;52.162;21.034;2023-12-20T10:22:18;4.50;;;3.30;;
24995;SDS011;13016;52.162;21.034;2023-12-20T10:29:04;4.30;;;3.80;;
24995;SDS011;13016;52.162;21.034;2023-12-20T10:35:24;4.60;;;3.70;;
24995;SDS011;13016;52.162;21.034;2023-12-20T10:41:30;9.60;;;5.70;;
24995;SDS011;13016;52.162;21.034;2023-12-20T10:48:11;4.70;;;3.50;;
24995;SDS011;13016;52.162;21.034;2023-12-20T11:00:59;5.90;;;4.00;;
24995;SDS011;13016;52.162;21.034;2023-12-20T11:07:37;4.90;;;3.70;;
24995;SDS011;13016;52.162;21.034;2023-12-20T11:14:08;7.60;;;4.10;;
24995;SDS011;13016;52.162;21.034;2023-12-20T11:20:47;5.50;;;3.60;;
24995;SDS011;13016;52.162;21.034;2023-12-20T11:27:30;4.70;;;3.90;;
24995;SDS011;13016;52.162;21.034;2023-12-20T11:34:29;5.60;;;3.60;;
24995;SDS011;13016;52.162;21.034;2023-12-20T11:46:02;4.60;;;3.90;;
24995;SDS011;13016;52.162;21.034;2023-12-20T12:05:21;4.40;;;3.60;;
24995;SDS011;13016;52.162;21.034;2023-12-20T12:23:53;5.20;;;3.50;;
24995;SDS011;13016;52.162;21.034;2023-12-20T12:31:09;3.60;;;2.90;;
24995;SDS011;13016;52.162;21.034;2023-12-20T12:37:53;4.60;;;3.20;;
24995;SDS011;13016;52.162;21.034;2023-12-20T13:22:44;7.20;;;4.30;;
24995;SDS011;13016;52.162;21.034;2023-12-20T13:28:48;6.80;;;4.60;;
24995;SDS011;13016;52.162;21.034;2023-12-20T13:34:56;8.50;;;4.60;;
24995;SDS011;13016;52.162;21.034;2023-12-20T13:41:01;8.50;;;4.90;;
24995;SDS011;13016;52.162;21.034;2023-12-20T13:54:21;7.40;;;4.80;;
24995;SDS011;13016;52.162;21.034;2023-12-20T14:01:00;8.10;;;5.10;;
24995;SDS011;13016;52.162;21.034;2023-12-20T14:07:45;8.40;;;5.10;;
24995;SDS011;13016;52.162;21.034;2023-12-20T14:14:17;9.50;;;5.10;;
24995;SDS011;13016;52.162;21.034;2023-12-20T14:20:40;8.90;;;4.40;;
24995;SDS011;13016;52.162;21.034;2023-12-20T14:26:48;8.30;;;5.20;;
24995;SDS011;13016;52.162;21.034;2023-12-20T14:33:40;7.60;;;5.00;;
24995;SDS011;13016;52.162;21.034;2023-12-20T14:39:41;9.10;;;4.90;;
24995;SDS011;13016;52.162;21.034;2023-12-20T14:45:55;8.60;;;4.70;;
24995;SDS011;13016;52.162;21.034;2023-12-20T14:51:59;6.00;;;3.60;;
24995;SDS011;13016;52.162;21.034;2023-12-20T14:58:03;5.20;;;3.80;;
24995;SDS011;13016;52.162;21.034;2023-12-20T15:04:08;6.30;;;3.90;;
24995;SDS011;13016;52.162;21.034;2023-12-20T15:10:12;6.20;;;4.10;;
24995;SDS011;13016;52.162;21.034;2023-12-20T15:16:30;8.30;;;4.30;;
24995;SDS011;13016;52.162;21.034;2023-12-20T15:22:30;7.90;;;3.50;;
24995;SDS011;13016;52.162;21.034;2023-12-20T15:28:33;6.10;;;4.20;;
24995;SDS011;13016;52.162;21.034;2023-12-20T15:34:33;5.90;;;3.50;;
24995;SDS011;13016;52.162;21.034;2023-12-20T15:40:35;7.20;;;3.50;;
24995;SDS011;13016;52.162;21.034;2023-12-20T15:46:37;9.90;;;4.60;;
24995;SDS011;13016;52.162;21.034;2023-12-20T15:52:39;7.60;;;4.20;;
24995;SDS011;13016;52.162;21.034;2023-12-20T15:58:42;7.20;;;4.20;;
24995;SDS011;13016;52.162;21.034;2023-12-20T16:11:13;6.70;;;3.80;;
24995;SDS011;13016;52.162;21.034;2023-12-20T16:46:24;7.30;;;4.10;;
24995;SDS011;13016;52.162;21.034;2023-12-20T16:52:24;7.90;;;3.80;;
24995;SDS011;13016;52.162;21.034;2023-12-20T16:58:24;7.70;;;4.30;;
24995;SDS011;13016;52.162;21.034;2023-12-20T17:04:24;9.00;;;4.30;;
24995;SDS011;13016;52.162;21.034;2023-12-20T17:10:24;9.30;;;4.80;;
24995;SDS011;13016;52.162;21.034;2023-12-20T17:22:26;8.30;;;3.80;;
24995;SDS011;13016;52.162;21.034;2023-12-20T17:28:26;8.50;;;3.90;;
24995;SDS011;13016;52.162;21.034;2023-12-20T17:34:26;8.70;;;4.00;;
24995;SDS011;13016;52.162;21.034;2023-12-20T17:40:27;7.10;;;3.90;;
24995;SDS011;13016;52.162;21.034;2023-12-20T17:46:43;9.70;;;3.60;;
24995;SDS011;13016;52.162;21.034;2023-12-20T17:52:47;8.30;;;3.70;;
24995;SDS011;13016;52.162;21.034;2023-12-20T17:58:47;10.20;;;3.70;;
24995;SDS011;13016;52.162;21.034;2023-12-20T18:04:53;6.30;;;3.50;;
24995;SDS011;13016;52.162;21.034;2023-12-20T18:11:24;7.50;;;4.00;;
24995;SDS011;13016;52.162;21.034;2023-12-20T18:23:58;6.70;;;2.90;;
24995;SDS011;13016;52.162;21.034;2023-12-20T18:30:50;6.90;;;3.10;;
24995;SDS011;13016;52.162;21.034;2023-12-20T18:36:56;8.90;;;3.60;;
24995;SDS011;13016;52.162;21.034;2023-12-20T18:43:03;9.10;;;3.80;;
24995;SDS011;13016;52.162;21.034;2023-12-20T18:55:45;8.80;;;3.70;;
24995;SDS011;13016;52.162;21.034;2023-12-20T19:01:47;6.80;;;3.60;;
24995;SDS011;13016;52.162;21.034;2023-12-20T19:08:01;8.70;;;3.80;;
24995;SDS011;13016;52.162;21.034;2023-12-20T19:14:05;9.40;;;3.90;;
24995;SDS011;13016;52.162;21.034;2023-12-20T19:20:53;5.50;;;3.00;;
24995;SDS011;13016;52.162;21.034;2023-12-20T19:26:46;4.50;;;2.80;;
24995;SDS011;13016;52.162;21.034;2023-12-20T20:05:42;1.60;;;1.00;;
24995;SDS011;13016;52.162;21.034;2023-12-20T20:11:46;1.30;;;1.10;;
24995;SDS011;13016;52.162;21.034;2023-12-20T20:17:49;2.10;;;1.30;;
24995;SDS011;13016;52.162;21.034;2023-12-20T20:23:58;2.00;;;1.30;;
24995;SDS011;13016;52.162;21.034;2023-12-20T20:29:59;2.50;;;1.30;;
24995;SDS011;13016;52.162;21.034;2023-12-20T20:36:00;3.30;;;1.80;;
24995;SDS011;13016;52.162;21.034;2023-12-20T20:42:06;2.70;;;1.90;;
24995;SDS011;13016;52.162;21.034;2023-12-20T20:48:08;3.30;;;1.70;;
24995;SDS011;13016;52.162;21.034;2023-12-20T20:54:13;3.00;;;1.60;;
24995;SDS011;13016;52.162;21.034;2023-12-20T21:00:31;15.00;;;9.10;;
24995;SDS011;13016;52.162;21.034;2023-12-20T21:06:32;4.40;;;2.60;;
24995;SDS011;13016;52.162;21.034;2023-12-20T21:12:35;4.60;;;2.40;;
24995;SDS011;13016;52.162;21.034;2023-12-20T21:18:39;5.90;;;2.50;;
24995;SDS011;13016;52.162;21.034;2023-12-20T21:24:46;6.70;;;2.50;;
24995;SDS011;13016;52.162;21.034;2023-12-20T21:31:07;4.50;;;2.40;;
24995;SDS011;13016;52.162;21.034;2023-12-20T21:37:28;6.30;;;2.80;;
24995;SDS011;13016;52.162;21.034;2023-12-20T21:43:34;5.20;;;2.80;;
24995;SDS011;13016;52.162;21.034;2023-12-20T21:49:37;3.40;;;2.50;;
24995;SDS011;13016;52.162;21.034;2023-12-20T21:56:13;6.70;;;2.60;;
24995;SDS011;13016;52.162;21.034;2023-12-20T22:02:18;6.40;;;2.60;;
24995;SDS011;13016;52.162;21.034;2023-12-20T22:08:20;6.90;;;3.00;;
24995;SDS011;13016;52.162;21.034;2023-12-20T22:21:00;6.20;;;2.90;;
24995;SDS011;13016;52.162;21.034;2023-12-20T22:32:42;4.40;;;2.50;;
24995;SDS011;13016;52.162;21.034;2023-12-20T22:38:43;7.40;;;2.80;;
24995;SDS011;13016;52.162;21.034;2023-12-20T22:44:44;6.60;;;2.80;;
24995;SDS011;13016;52.162;21.034;2023-12-20T22:51:34;5.80;;;2.90;;
24995;SDS011;13016;52.162;21.034;2023-12-20T22:57:16;5.90;;;2.50;;
24995;SDS011;13016;52.162;21.034;2023-12-20T23:03:16;7.20;;;2.90;;
24995;SDS011;13016;52.162;21.034;2023-12-20T23:09:24;5.90;;;2.70;;
24995;SDS011;13016;52.162;21.034;2023-12-20T23:15:28;7.00;;;2.90;;
24995;SDS011;13016;52.162;21.034;2023-12-20T23:21:31;7.50;;;2.70;;
24995;SDS011;13016;52.162;21.034;2023-12-20T23:27:31;6.70;;;2.50;;
24995;SDS011;13016;52.162;21.034;2023-12-20T23:33:32;6.40;;;2.80;;
24995;SDS011;13016;52.162;21.034;2023-12-20T23:39:44;8.30;;;3.00;;
24995;SDS011;13016;52.162;21.034;2023-12-20T23:45:44;8.00;;;2.80;;
24995;SDS011;13016;52.162;21.034;2023-12-20T23:51:49;7.40;;;3.00;;
24995;SDS011;13016;52.162;21.034;2023-12-20T23:58:03;7.10;;;3.20;;
